sensor_id;sensor_type;location;lat;lon;timestamp;P1;durP1;ratioP1;P2;durP2;ratioP2
77466;SDS011;66564;42.482;25.548;2023-09-18T10:10:54;7.45;;;4.80;;
77466;SDS011;66564;42.482;25.548;2023-09-18T10:13:36;6.13;;;4.03;;
77466;SDS011;66564;42.482;25.548;2023-09-18T10:16:12;9.82;;;4.70;;
77466;SDS011;66564;42.482;25.548;2023-09-18T10:21:27;6.53;;;4.40;;
77466;SDS011;66564;42.482;25.548;2023-09-18T10:26:57;7.68;;;4.70;;
77466;SDS011;66564;42.482;25.548;2023-09-18T10:29:25;7.30;;;4.57;;
77466;SDS011;66564;42.482;25.548;2023-09-18T10:31:52;6.93;;;4.45;;
77466;SDS011;66564;42.482;25.548;2023-09-18T10:34:18;9.80;;;4.95;;
77466;SDS011;66564;42.482;25.548;2023-09-18T10:36:48;7.57;;;5.00;;
77466;SDS011;66564;42.482;25.548;2023-09-18T10:39:15;9.77;;;5.90;;
77466;SDS011;66564;42.482;25.548;2023-09-18T10:41:47;6.00;;;4.80;;
77466;SDS011;66564;42.482;25.548;2023-09-18T10:44:16;7.95;;;5.20;;
77466;SDS011;66564;42.482;25.548;2023-09-18T10:46:48;7.00;;;5.18;;
77466;SDS011;66564;42.482;25.548;2023-09-18T10:49:16;6.65;;;4.65;;
77466;SDS011;66564;42.482;25.548;2023-09-18T10:51:42;7.53;;;5.05;;
77466;SDS011;66564;42.482;25.548;2023-09-18T10:54:09;11.55;;;5.60;;
77466;SDS011;66564;42.482;25.548;2023-09-18T10:56:43;7.28;;;5.75;;
77466;SDS011;66564;42.482;25.548;2023-09-18T10:59:09;7.38;;;5.47;;
77466;SDS011;66564;42.482;25.548;2023-09-18T11:01:35;9.00;;;5.68;;
77466;SDS011;66564;42.482;25.548;2023-09-18T11:04:04;7.78;;;5.57;;
77466;SDS011;66564;42.482;25.548;2023-09-18T11:09:22;8.63;;;5.70;;
77466;SDS011;66564;42.482;25.548;2023-09-18T11:22:35;9.95;;;5.72;;
77466;SDS011;66564;42.482;25.548;2023-09-18T11:25:28;8.98;;;6.15;;
77466;SDS011;66564;42.482;25.548;2023-09-18T11:28:00;11.73;;;6.07;;
77466;SDS011;66564;42.482;25.548;2023-09-18T11:30:27;18.40;;;7.28;;
77466;SDS011;66564;42.482;25.548;2023-09-18T11:32:54;9.85;;;5.80;;
77466;SDS011;66564;42.482;25.548;2023-09-18T11:35:20;11.52;;;6.38;;
77466;SDS011;66564;42.482;25.548;2023-09-18T11:37:47;10.98;;;6.95;;
77466;SDS011;66564;42.482;25.548;2023-09-18T11:40:30;9.10;;;6.13;;
77466;SDS011;66564;42.482;25.548;2023-09-18T11:43:18;9.80;;;6.18;;
77466;SDS011;66564;42.482;25.548;2023-09-18T11:45:52;9.57;;;6.35;;
77466;SDS011;66564;42.482;25.548;2023-09-18T11:48:20;11.38;;;5.82;;
77466;SDS011;66564;42.482;25.548;2023-09-18T11:50:49;12.15;;;6.68;;
77466;SDS011;66564;42.482;25.548;2023-09-18T11:53:17;9.45;;;6.50;;
77466;SDS011;66564;42.482;25.548;2023-09-18T11:55:44;10.13;;;6.55;;
77466;SDS011;66564;42.482;25.548;2023-09-18T11:58:10;9.15;;;6.53;;
77466;SDS011;66564;42.482;25.548;2023-09-18T12:00:35;9.93;;;7.10;;
77466;SDS011;66564;42.482;25.548;2023-09-18T12:03:20;8.75;;;6.55;;
77466;SDS011;66564;42.482;25.548;2023-09-18T12:08:22;11.20;;;6.78;;
77466;SDS011;66564;42.482;25.548;2023-09-18T12:10:51;8.10;;;6.72;;
77466;SDS011;66564;42.482;25.548;2023-09-18T12:13:18;8.82;;;7.00;;
77466;SDS011;66564;42.482;25.548;2023-09-18T12:15:43;8.05;;;6.90;;
77466;SDS011;66564;42.482;25.548;2023-09-18T12:18:09;10.93;;;7.18;;
77466;SDS011;66564;42.482;25.548;2023-09-18T12:20:46;10.63;;;5.93;;
77466;SDS011;66564;42.482;25.548;2023-09-18T12:23:15;8.38;;;6.15;;
77466;SDS011;66564;42.482;25.548;2023-09-18T12:25:43;10.55;;;7.40;;
77466;SDS011;66564;42.482;25.548;2023-09-18T12:28:12;8.73;;;6.43;;
77466;SDS011;66564;42.482;25.548;2023-09-18T12:30:39;9.95;;;7.07;;
77466;SDS011;66564;42.482;25.548;2023-09-18T12:33:05;8.82;;;6.82;;
77466;SDS011;66564;42.482;25.548;2023-09-18T12:35:30;8.10;;;6.55;;
77466;SDS011;66564;42.482;25.548;2023-09-18T12:37:59;14.27;;;8.32;;
77466;SDS011;66564;42.482;25.548;2023-09-18T12:40:30;7.85;;;6.38;;
77466;SDS011;66564;42.482;25.548;2023-09-18T12:42:59;8.48;;;6.32;;
77466;SDS011;66564;42.482;25.548;2023-09-18T12:45:26;10.93;;;6.70;;
77466;SDS011;66564;42.482;25.548;2023-09-18T12:47:54;9.93;;;6.60;;
77466;SDS011;66564;42.482;25.548;2023-09-18T12:50:20;8.65;;;6.85;;
77466;SDS011;66564;42.482;25.548;2023-09-18T12:52:46;8.50;;;6.18;;
77466;SDS011;66564;42.482;25.548;2023-09-18T12:55:22;7.97;;;5.72;;
77466;SDS011;66564;42.482;25.548;2023-09-18T12:57:54;7.97;;;6.03;;
77466;SDS011;66564;42.482;25.548;2023-09-18T13:00:21;7.00;;;4.93;;
77466;SDS011;66564;42.482;25.548;2023-09-18T13:02:51;8.73;;;6.00;;
77466;SDS011;66564;42.482;25.548;2023-09-18T13:05:20;9.10;;;5.13;;
77466;SDS011;66564;42.482;25.548;2023-09-18T13:07:51;7.70;;;5.70;;
77466;SDS011;66564;42.482;25.548;2023-09-18T13:10:18;9.82;;;5.50;;
77466;SDS011;66564;42.482;25.548;2023-09-18T13:12:48;8.93;;;6.32;;
77466;SDS011;66564;42.482;25.548;2023-09-18T13:15:24;8.63;;;5.47;;
77466;SDS011;66564;42.482;25.548;2023-09-18T13:17:52;8.20;;;5.35;;
77466;SDS011;66564;42.482;25.548;2023-09-18T13:20:20;9.73;;;6.57;;
77466;SDS011;66564;42.482;25.548;2023-09-18T13:22:49;8.38;;;5.38;;
77466;SDS011;66564;42.482;25.548;2023-09-18T13:25:20;7.78;;;6.28;;
77466;SDS011;66564;42.482;25.548;2023-09-18T13:27:50;12.20;;;6.20;;
77466;SDS011;66564;42.482;25.548;2023-09-18T13:30:17;17.05;;;6.22;;
77466;SDS011;66564;42.482;25.548;2023-09-18T13:32:44;11.57;;;6.07;;
77466;SDS011;66564;42.482;25.548;2023-09-18T13:35:10;8.20;;;6.15;;
77466;SDS011;66564;42.482;25.548;2023-09-18T13:37:38;10.00;;;5.35;;
77466;SDS011;66564;42.482;25.548;2023-09-18T13:40:05;6.70;;;5.80;;
77466;SDS011;66564;42.482;25.548;2023-09-18T13:42:34;9.55;;;6.43;;
77466;SDS011;66564;42.482;25.548;2023-09-18T13:45:00;9.48;;;6.05;;
77466;SDS011;66564;42.482;25.548;2023-09-18T13:47:27;7.55;;;5.45;;
77466;SDS011;66564;42.482;25.548;2023-09-18T13:49:54;7.65;;;6.03;;
77466;SDS011;66564;42.482;25.548;2023-09-18T13:52:22;7.95;;;5.65;;
77466;SDS011;66564;42.482;25.548;2023-09-18T13:54:49;7.97;;;6.47;;
77466;SDS011;66564;42.482;25.548;2023-09-18T13:57:19;9.63;;;6.03;;
77466;SDS011;66564;42.482;25.548;2023-09-18T13:59:45;10.73;;;6.47;;
77466;SDS011;66564;42.482;25.548;2023-09-18T14:02:12;7.40;;;5.45;;
77466;SDS011;66564;42.482;25.548;2023-09-18T14:04:38;9.05;;;6.78;;
77466;SDS011;66564;42.482;25.548;2023-09-18T14:07:04;11.65;;;5.80;;
77466;SDS011;66564;42.482;25.548;2023-09-18T14:09:31;8.15;;;6.70;;
77466;SDS011;66564;42.482;25.548;2023-09-18T14:11:57;7.97;;;6.28;;
77466;SDS011;66564;42.482;25.548;2023-09-18T14:14:22;8.75;;;6.40;;
77466;SDS011;66564;42.482;25.548;2023-09-18T14:16:49;10.10;;;5.70;;
77466;SDS011;66564;42.482;25.548;2023-09-18T14:19:18;8.15;;;6.32;;
77466;SDS011;66564;42.482;25.548;2023-09-18T14:21:44;11.38;;;6.30;;
77466;SDS011;66564;42.482;25.548;2023-09-18T14:24:10;8.32;;;6.10;;
77466;SDS011;66564;42.482;25.548;2023-09-18T14:26:36;8.00;;;6.00;;
77466;SDS011;66564;42.482;25.548;2023-09-18T14:29:09;8.23;;;6.18;;
77466;SDS011;66564;42.482;25.548;2023-09-18T14:31:36;10.98;;;6.07;;
77466;SDS011;66564;42.482;25.548;2023-09-18T14:34:02;9.15;;;5.93;;
77466;SDS011;66564;42.482;25.548;2023-09-18T14:36:27;9.10;;;6.60;;
77466;SDS011;66564;42.482;25.548;2023-09-18T14:38:54;10.20;;;5.70;;
77466;SDS011;66564;42.482;25.548;2023-09-18T14:41:20;7.68;;;6.35;;
77466;SDS011;66564;42.482;25.548;2023-09-18T14:43:46;8.90;;;5.88;;
77466;SDS011;66564;42.482;25.548;2023-09-18T14:46:12;7.78;;;6.55;;
77466;SDS011;66564;42.482;25.548;2023-09-18T14:48:38;10.95;;;7.45;;
77466;SDS011;66564;42.482;25.548;2023-09-18T14:51:05;13.45;;;5.90;;
77466;SDS011;66564;42.482;25.548;2023-09-18T14:53:32;8.60;;;6.38;;
77466;SDS011;66564;42.482;25.548;2023-09-18T14:55:57;10.82;;;6.15;;
77466;SDS011;66564;42.482;25.548;2023-09-18T14:58:23;8.35;;;5.50;;
77466;SDS011;66564;42.482;25.548;2023-09-18T15:00:49;15.57;;;6.75;;
77466;SDS011;66564;42.482;25.548;2023-09-18T15:03:15;11.05;;;6.50;;
77466;SDS011;66564;42.482;25.548;2023-09-18T15:05:40;10.20;;;6.53;;
77466;SDS011;66564;42.482;25.548;2023-09-18T15:08:06;10.77;;;6.20;;
77466;SDS011;66564;42.482;25.548;2023-09-18T15:10:32;10.98;;;6.10;;
77466;SDS011;66564;42.482;25.548;2023-09-18T15:12:58;11.77;;;7.15;;
77466;SDS011;66564;42.482;25.548;2023-09-18T15:15:23;14.48;;;6.82;;
77466;SDS011;66564;42.482;25.548;2023-09-18T15:17:49;11.52;;;6.57;;
77466;SDS011;66564;42.482;25.548;2023-09-18T15:20:17;13.60;;;6.05;;
77466;SDS011;66564;42.482;25.548;2023-09-18T15:22:43;30.17;;;7.13;;
77466;SDS011;66564;42.482;25.548;2023-09-18T15:25:09;16.83;;;6.10;;
77466;SDS011;66564;42.482;25.548;2023-09-18T15:27:35;13.00;;;6.20;;
77466;SDS011;66564;42.482;25.548;2023-09-18T15:30:02;13.27;;;6.05;;
77466;SDS011;66564;42.482;25.548;2023-09-18T15:32:30;17.88;;;6.55;;
77466;SDS011;66564;42.482;25.548;2023-09-18T15:35:10;20.02;;;7.32;;
77466;SDS011;66564;42.482;25.548;2023-09-18T15:37:35;12.70;;;7.40;;
77466;SDS011;66564;42.482;25.548;2023-09-18T15:40:01;13.63;;;8.05;;
77466;SDS011;66564;42.482;25.548;2023-09-18T15:42:29;13.40;;;6.68;;
77466;SDS011;66564;42.482;25.548;2023-09-18T15:44:55;14.75;;;7.55;;
77466;SDS011;66564;42.482;25.548;2023-09-18T15:47:20;14.25;;;7.20;;
77466;SDS011;66564;42.482;25.548;2023-09-18T15:49:46;16.23;;;7.55;;
77466;SDS011;66564;42.482;25.548;2023-09-18T15:52:11;10.35;;;7.40;;
77466;SDS011;66564;42.482;25.548;2023-09-18T15:54:37;16.08;;;7.95;;
77466;SDS011;66564;42.482;25.548;2023-09-18T15:57:02;10.15;;;6.97;;
77466;SDS011;66564;42.482;25.548;2023-09-18T15:59:28;14.98;;;7.50;;
77466;SDS011;66564;42.482;25.548;2023-09-18T16:01:54;10.18;;;6.85;;
77466;SDS011;66564;42.482;25.548;2023-09-18T16:04:19;11.40;;;7.15;;
77466;SDS011;66564;42.482;25.548;2023-09-18T16:06:46;11.07;;;8.27;;
77466;SDS011;66564;42.482;25.548;2023-09-18T16:09:11;12.45;;;7.38;;
77466;SDS011;66564;42.482;25.548;2023-09-18T16:11:37;12.15;;;6.82;;
77466;SDS011;66564;42.482;25.548;2023-09-18T16:14:03;11.10;;;8.07;;
77466;SDS011;66564;42.482;25.548;2023-09-18T16:16:29;12.13;;;7.10;;
77466;SDS011;66564;42.482;25.548;2023-09-18T16:18:54;12.23;;;7.00;;
77466;SDS011;66564;42.482;25.548;2023-09-18T16:21:22;8.70;;;6.65;;
77466;SDS011;66564;42.482;25.548;2023-09-18T16:23:48;10.48;;;6.28;;
77466;SDS011;66564;42.482;25.548;2023-09-18T16:26:13;7.35;;;6.05;;
77466;SDS011;66564;42.482;25.548;2023-09-18T16:28:39;8.68;;;6.60;;
77466;SDS011;66564;42.482;25.548;2023-09-18T16:31:04;9.02;;;6.00;;
77466;SDS011;66564;42.482;25.548;2023-09-18T16:33:33;9.25;;;5.95;;
77466;SDS011;66564;42.482;25.548;2023-09-18T16:35:59;8.48;;;6.60;;
77466;SDS011;66564;42.482;25.548;2023-09-18T16:38:25;8.15;;;6.25;;
77466;SDS011;66564;42.482;25.548;2023-09-18T16:40:50;9.73;;;6.00;;
77466;SDS011;66564;42.482;25.548;2023-09-18T16:43:16;8.98;;;6.70;;
77466;SDS011;66564;42.482;25.548;2023-09-18T16:45:44;8.07;;;5.65;;
77466;SDS011;66564;42.482;25.548;2023-09-18T16:48:12;10.10;;;6.00;;
77466;SDS011;66564;42.482;25.548;2023-09-18T16:50:37;9.38;;;6.03;;
77466;SDS011;66564;42.482;25.548;2023-09-18T16:53:03;7.63;;;5.75;;
77466;SDS011;66564;42.482;25.548;2023-09-18T16:55:29;10.02;;;6.38;;
77466;SDS011;66564;42.482;25.548;2023-09-18T16:57:55;7.93;;;5.70;;
77466;SDS011;66564;42.482;25.548;2023-09-18T17:00:20;18.13;;;6.20;;
77466;SDS011;66564;42.482;25.548;2023-09-18T17:02:46;11.50;;;5.43;;
77466;SDS011;66564;42.482;25.548;2023-09-18T17:05:13;21.20;;;6.40;;
77466;SDS011;66564;42.482;25.548;2023-09-18T17:07:39;18.38;;;6.10;;
77466;SDS011;66564;42.482;25.548;2023-09-18T17:10:05;9.38;;;5.00;;
77466;SDS011;66564;42.482;25.548;2023-09-18T17:12:31;8.68;;;4.97;;
77466;SDS011;66564;42.482;25.548;2023-09-18T17:14:56;9.07;;;5.25;;
77466;SDS011;66564;42.482;25.548;2023-09-18T17:17:22;7.30;;;5.38;;
77466;SDS011;66564;42.482;25.548;2023-09-18T17:19:48;8.82;;;5.82;;
77466;SDS011;66564;42.482;25.548;2023-09-18T17:22:14;8.00;;;5.25;;
77466;SDS011;66564;42.482;25.548;2023-09-18T17:24:40;8.20;;;5.78;;
77466;SDS011;66564;42.482;25.548;2023-09-18T17:27:06;8.52;;;4.93;;
77466;SDS011;66564;42.482;25.548;2023-09-18T17:29:32;10.23;;;5.85;;
77466;SDS011;66564;42.482;25.548;2023-09-18T17:31:59;10.23;;;5.63;;
77466;SDS011;66564;42.482;25.548;2023-09-18T17:34:25;7.68;;;5.55;;
77466;SDS011;66564;42.482;25.548;2023-09-18T17:36:52;10.52;;;5.35;;
77466;SDS011;66564;42.482;25.548;2023-09-18T17:39:18;9.13;;;5.47;;
77466;SDS011;66564;42.482;25.548;2023-09-18T17:41:43;7.30;;;5.13;;
77466;SDS011;66564;42.482;25.548;2023-09-18T17:44:09;6.53;;;5.20;;
77466;SDS011;66564;42.482;25.548;2023-09-18T17:46:35;9.32;;;5.80;;
77466;SDS011;66564;42.482;25.548;2023-09-18T17:49:01;7.28;;;5.53;;
77466;SDS011;66564;42.482;25.548;2023-09-18T17:51:26;7.80;;;5.00;;
77466;SDS011;66564;42.482;25.548;2023-09-18T17:53:52;6.78;;;5.30;;
77466;SDS011;66564;42.482;25.548;2023-09-18T17:56:20;12.10;;;6.43;;
77466;SDS011;66564;42.482;25.548;2023-09-18T17:58:47;9.10;;;5.53;;
77466;SDS011;66564;42.482;25.548;2023-09-18T18:01:12;9.80;;;5.15;;
77466;SDS011;66564;42.482;25.548;2023-09-18T18:03:38;7.78;;;5.47;;
77466;SDS011;66564;42.482;25.548;2023-09-18T18:06:07;7.93;;;4.97;;
77466;SDS011;66564;42.482;25.548;2023-09-18T18:08:34;8.07;;;5.30;;
77466;SDS011;66564;42.482;25.548;2023-09-18T18:11:00;7.65;;;5.25;;
77466;SDS011;66564;42.482;25.548;2023-09-18T18:13:25;8.48;;;4.75;;
77466;SDS011;66564;42.482;25.548;2023-09-18T18:15:51;10.20;;;5.75;;
77466;SDS011;66564;42.482;25.548;2023-09-18T18:18:16;7.90;;;4.47;;
77466;SDS011;66564;42.482;25.548;2023-09-18T18:20:42;12.52;;;5.15;;
77466;SDS011;66564;42.482;25.548;2023-09-18T18:23:10;15.90;;;6.72;;
77466;SDS011;66564;42.482;25.548;2023-09-18T18:25:35;6.97;;;4.57;;
77466;SDS011;66564;42.482;25.548;2023-09-18T18:28:01;7.95;;;5.10;;
77466;SDS011;66564;42.482;25.548;2023-09-18T18:30:27;9.98;;;5.22;;
77466;SDS011;66564;42.482;25.548;2023-09-18T18:32:52;6.55;;;5.18;;
77466;SDS011;66564;42.482;25.548;2023-09-18T18:35:18;6.30;;;4.63;;
77466;SDS011;66564;42.482;25.548;2023-09-18T18:37:46;7.93;;;4.75;;
77466;SDS011;66564;42.482;25.548;2023-09-18T18:40:14;6.50;;;5.45;;
77466;SDS011;66564;42.482;25.548;2023-09-18T18:42:41;9.52;;;4.38;;
77466;SDS011;66564;42.482;25.548;2023-09-18T18:45:06;5.72;;;4.18;;
77466;SDS011;66564;42.482;25.548;2023-09-18T18:47:32;7.15;;;4.90;;
77466;SDS011;66564;42.482;25.548;2023-09-18T18:49:59;10.82;;;4.72;;
77466;SDS011;66564;42.482;25.548;2023-09-18T18:52:24;11.93;;;4.82;;
77466;SDS011;66564;42.482;25.548;2023-09-18T18:54:50;6.97;;;4.65;;
77466;SDS011;66564;42.482;25.548;2023-09-18T18:57:18;7.60;;;4.20;;
77466;SDS011;66564;42.482;25.548;2023-09-18T18:59:44;7.93;;;5.03;;
77466;SDS011;66564;42.482;25.548;2023-09-18T19:02:10;9.32;;;4.82;;
77466;SDS011;66564;42.482;25.548;2023-09-18T19:04:36;7.30;;;5.18;;
77466;SDS011;66564;42.482;25.548;2023-09-18T19:07:01;7.75;;;4.68;;
77466;SDS011;66564;42.482;25.548;2023-09-18T19:09:29;6.22;;;4.00;;
77466;SDS011;66564;42.482;25.548;2023-09-18T19:11:55;9.82;;;5.00;;
77466;SDS011;66564;42.482;25.548;2023-09-18T19:14:20;7.72;;;4.68;;
77466;SDS011;66564;42.482;25.548;2023-09-18T19:16:46;6.75;;;4.68;;
77466;SDS011;66564;42.482;25.548;2023-09-18T19:19:11;10.30;;;4.60;;
77466;SDS011;66564;42.482;25.548;2023-09-18T19:21:37;9.73;;;4.38;;
77466;SDS011;66564;42.482;25.548;2023-09-18T19:24:05;5.65;;;4.15;;
77466;SDS011;66564;42.482;25.548;2023-09-18T19:26:31;6.65;;;4.47;;
77466;SDS011;66564;42.482;25.548;2023-09-18T19:28:56;9.02;;;4.60;;
77466;SDS011;66564;42.482;25.548;2023-09-18T19:31:22;6.60;;;5.10;;
77466;SDS011;66564;42.482;25.548;2023-09-18T19:33:47;11.02;;;4.43;;
77466;SDS011;66564;42.482;25.548;2023-09-18T19:36:13;8.52;;;4.97;;
77466;SDS011;66564;42.482;25.548;2023-09-18T19:38:38;6.97;;;5.00;;
77466;SDS011;66564;42.482;25.548;2023-09-18T19:41:04;6.03;;;4.03;;
77466;SDS011;66564;42.482;25.548;2023-09-18T19:43:31;8.93;;;4.88;;
77466;SDS011;66564;42.482;25.548;2023-09-18T19:45:56;8.13;;;4.82;;
77466;SDS011;66564;42.482;25.548;2023-09-18T19:48:22;10.27;;;4.53;;
77466;SDS011;66564;42.482;25.548;2023-09-18T19:50:47;8.05;;;5.15;;
77466;SDS011;66564;42.482;25.548;2023-09-18T19:53:15;9.95;;;4.78;;
77466;SDS011;66564;42.482;25.548;2023-09-18T19:55:41;8.57;;;5.05;;
77466;SDS011;66564;42.482;25.548;2023-09-18T19:58:09;6.53;;;4.38;;
77466;SDS011;66564;42.482;25.548;2023-09-18T20:00:34;7.13;;;4.63;;
77466;SDS011;66564;42.482;25.548;2023-09-18T20:03:01;7.15;;;5.03;;
77466;SDS011;66564;42.482;25.548;2023-09-18T20:05:29;7.30;;;4.55;;
77466;SDS011;66564;42.482;25.548;2023-09-18T20:07:55;9.00;;;5.07;;
77466;SDS011;66564;42.482;25.548;2023-09-18T20:10:20;8.50;;;4.82;;
77466;SDS011;66564;42.482;25.548;2023-09-18T20:12:47;7.53;;;5.22;;
77466;SDS011;66564;42.482;25.548;2023-09-18T20:15:14;10.13;;;5.40;;
77466;SDS011;66564;42.482;25.548;2023-09-18T20:17:40;6.90;;;4.35;;
77466;SDS011;66564;42.482;25.548;2023-09-18T20:20:07;7.10;;;4.50;;
77466;SDS011;66564;42.482;25.548;2023-09-18T20:22:38;7.25;;;4.80;;
77466;SDS011;66564;42.482;25.548;2023-09-18T20:25:05;9.52;;;5.00;;
77466;SDS011;66564;42.482;25.548;2023-09-18T20:27:33;10.38;;;4.47;;
77466;SDS011;66564;42.482;25.548;2023-09-18T20:30:00;6.20;;;4.65;;
77466;SDS011;66564;42.482;25.548;2023-09-18T20:32:26;8.48;;;5.07;;
77466;SDS011;66564;42.482;25.548;2023-09-18T20:34:51;8.32;;;4.65;;
77466;SDS011;66564;42.482;25.548;2023-09-18T20:37:16;7.70;;;5.28;;
77466;SDS011;66564;42.482;25.548;2023-09-18T20:39:42;9.27;;;5.22;;
77466;SDS011;66564;42.482;25.548;2023-09-18T20:42:07;7.75;;;4.55;;
77466;SDS011;66564;42.482;25.548;2023-09-18T20:44:33;7.70;;;4.85;;
77466;SDS011;66564;42.482;25.548;2023-09-18T20:46:59;7.25;;;5.07;;
77466;SDS011;66564;42.482;25.548;2023-09-18T20:49:24;8.18;;;5.00;;
77466;SDS011;66564;42.482;25.548;2023-09-18T20:51:50;8.65;;;4.50;;
77466;SDS011;66564;42.482;25.548;2023-09-18T20:54:15;7.68;;;4.80;;
77466;SDS011;66564;42.482;25.548;2023-09-18T20:56:41;7.75;;;4.70;;
77466;SDS011;66564;42.482;25.548;2023-09-18T20:59:08;6.07;;;4.32;;
77466;SDS011;66564;42.482;25.548;2023-09-18T21:01:34;6.28;;;4.88;;
77466;SDS011;66564;42.482;25.548;2023-09-18T21:03:59;10.10;;;5.38;;
77466;SDS011;66564;42.482;25.548;2023-09-18T21:06:29;8.60;;;5.47;;
77466;SDS011;66564;42.482;25.548;2023-09-18T21:08:54;8.35;;;5.05;;
77466;SDS011;66564;42.482;25.548;2023-09-18T21:11:20;6.25;;;5.60;;
77466;SDS011;66564;42.482;25.548;2023-09-18T21:13:46;9.82;;;4.80;;
77466;SDS011;66564;42.482;25.548;2023-09-18T21:16:13;7.25;;;5.18;;
77466;SDS011;66564;42.482;25.548;2023-09-18T21:18:42;7.95;;;4.97;;
77466;SDS011;66564;42.482;25.548;2023-09-18T21:21:08;8.52;;;4.68;;
77466;SDS011;66564;42.482;25.548;2023-09-18T21:23:34;6.43;;;4.90;;
77466;SDS011;66564;42.482;25.548;2023-09-18T21:25:59;10.15;;;5.72;;
77466;SDS011;66564;42.482;25.548;2023-09-18T21:28:25;9.27;;;4.93;;
77466;SDS011;66564;42.482;25.548;2023-09-18T21:30:50;9.50;;;5.25;;
77466;SDS011;66564;42.482;25.548;2023-09-18T21:33:16;11.77;;;5.43;;
77466;SDS011;66564;42.482;25.548;2023-09-18T21:35:41;10.45;;;5.60;;
77466;SDS011;66564;42.482;25.548;2023-09-18T21:38:06;6.18;;;4.53;;
77466;SDS011;66564;42.482;25.548;2023-09-18T21:40:32;8.40;;;5.20;;
77466;SDS011;66564;42.482;25.548;2023-09-18T21:43:00;8.38;;;5.15;;
77466;SDS011;66564;42.482;25.548;2023-09-18T21:45:25;11.23;;;6.10;;
77466;SDS011;66564;42.482;25.548;2023-09-18T21:47:51;9.02;;;5.20;;
77466;SDS011;66564;42.482;25.548;2023-09-18T21:50:18;7.28;;;4.93;;
77466;SDS011;66564;42.482;25.548;2023-09-18T21:52:45;7.47;;;4.78;;
77466;SDS011;66564;42.482;25.548;2023-09-18T21:55:10;16.27;;;4.50;;
77466;SDS011;66564;42.482;25.548;2023-09-18T21:57:36;8.57;;;4.55;;
77466;SDS011;66564;42.482;25.548;2023-09-18T22:00:01;7.22;;;5.03;;
77466;SDS011;66564;42.482;25.548;2023-09-18T22:02:42;7.82;;;5.22;;
77466;SDS011;66564;42.482;25.548;2023-09-18T22:05:07;7.25;;;4.93;;
77466;SDS011;66564;42.482;25.548;2023-09-18T22:07:33;6.45;;;4.25;;
77466;SDS011;66564;42.482;25.548;2023-09-18T22:09:58;6.35;;;4.53;;
77466;SDS011;66564;42.482;25.548;2023-09-18T22:12:23;8.73;;;5.25;;
77466;SDS011;66564;42.482;25.548;2023-09-18T22:14:50;7.32;;;4.93;;
77466;SDS011;66564;42.482;25.548;2023-09-18T22:17:17;8.30;;;4.55;;
77466;SDS011;66564;42.482;25.548;2023-09-18T22:19:43;6.68;;;4.93;;
77466;SDS011;66564;42.482;25.548;2023-09-18T22:22:08;7.20;;;4.72;;
77466;SDS011;66564;42.482;25.548;2023-09-18T22:24:35;6.43;;;4.65;;
77466;SDS011;66564;42.482;25.548;2023-09-18T22:27:01;10.07;;;4.93;;
77466;SDS011;66564;42.482;25.548;2023-09-18T22:29:26;8.75;;;4.78;;
77466;SDS011;66564;42.482;25.548;2023-09-18T22:31:52;7.45;;;4.95;;
77466;SDS011;66564;42.482;25.548;2023-09-18T22:34:19;7.28;;;5.10;;
77466;SDS011;66564;42.482;25.548;2023-09-18T22:36:45;8.23;;;5.00;;
77466;SDS011;66564;42.482;25.548;2023-09-18T22:56:09;8.10;;;4.80;;
77466;SDS011;66564;42.482;25.548;2023-09-18T22:58:39;6.70;;;4.93;;
77466;SDS011;66564;42.482;25.548;2023-09-18T23:01:07;9.88;;;4.85;;
77466;SDS011;66564;42.482;25.548;2023-09-18T23:03:33;10.55;;;5.97;;
77466;SDS011;66564;42.482;25.548;2023-09-18T23:05:58;6.78;;;4.95;;
77466;SDS011;66564;42.482;25.548;2023-09-18T23:08:24;8.32;;;5.65;;
77466;SDS011;66564;42.482;25.548;2023-09-18T23:10:50;7.55;;;4.97;;
77466;SDS011;66564;42.482;25.548;2023-09-18T23:13:15;7.30;;;4.93;;
77466;SDS011;66564;42.482;25.548;2023-09-18T23:15:41;6.40;;;4.93;;
77466;SDS011;66564;42.482;25.548;2023-09-18T23:18:08;8.00;;;5.35;;
77466;SDS011;66564;42.482;25.548;2023-09-18T23:20:35;6.45;;;4.97;;
77466;SDS011;66564;42.482;25.548;2023-09-18T23:23:02;6.63;;;4.20;;
77466;SDS011;66564;42.482;25.548;2023-09-18T23:25:28;9.30;;;5.00;;
77466;SDS011;66564;42.482;25.548;2023-09-18T23:27:59;8.10;;;5.07;;
77466;SDS011;66564;42.482;25.548;2023-09-18T23:30:25;6.30;;;4.70;;
77466;SDS011;66564;42.482;25.548;2023-09-18T23:35:23;7.30;;;4.57;;
77466;SDS011;66564;42.482;25.548;2023-09-18T23:40:20;6.18;;;4.57;;
77466;SDS011;66564;42.482;25.548;2023-09-18T23:42:47;7.55;;;4.85;;
77466;SDS011;66564;42.482;25.548;2023-09-18T23:45:13;6.57;;;4.85;;
77466;SDS011;66564;42.482;25.548;2023-09-18T23:47:44;6.40;;;4.35;;
77466;SDS011;66564;42.482;25.548;2023-09-18T23:50:12;6.90;;;4.20;;
77466;SDS011;66564;42.482;25.548;2023-09-18T23:52:42;6.43;;;4.55;;
77466;SDS011;66564;42.482;25.548;2023-09-18T23:55:09;7.53;;;4.50;;
77466;SDS011;66564;42.482;25.548;2023-09-18T23:57:35;7.32;;;4.60;;
